McGaffey, New Mexico
Current Conditions -  °F | °C
As of 3:53 PM on Tuesday 25 Nov 2014 (Local Time) from KGUP Reporting Station
Clear Clear  
Wind Chill: 43°   Ceiling: Unl
Heat Index: 48°   Visibility: 10mi
Dew Point:   Wind: 13mph
Humidity: 16%   Direction: 260°W
Pressure: 30.34"   Gusts: NA
Location:  35.4212°N, 108.53°W
Report Text: KGUP 252253Z AUTO 26011KT 10SM CLR 09/M16 A3034 RMK AO2 SLP304 T00891161
Loading
Personal Weather Stations






























Interactive Weather Map New forecast layout! Learn more

10-Day Weather Forecast

Advertisements
Track Severe Weather on mobile